sensor_id;sensor_type;location;lat;lon;timestamp;pressure;altitude;pressure_sealevel;temperature;humidity
28456;BME280;15682;56.742;38.866;2023-03-21T00:01:02;99110.0;;;1.9;77.2
28456;BME280;15682;56.742;38.866;2023-03-21T00:03:02;99110.0;;;1.9;76.4
28456;BME280;15682;56.742;38.866;2023-03-21T00:05:02;99110.0;;;1.9;76.4
28456;BME280;15682;56.742;38.866;2023-03-21T00:07:02;99110.0;;;1.9;76.4
28456;BME280;15682;56.742;38.866;2023-03-21T00:09:02;99110.0;;;1.9;76.4
28456;BME280;15682;56.742;38.866;2023-03-21T00:11:03;99100.0;;;1.9;76.8
28456;BME280;15682;56.742;38.866;2023-03-21T00:13:01;99100.0;;;1.9;76.8
28456;BME280;15682;56.742;38.866;2023-03-21T00:15:02;99100.0;;;1.9;76.6
28456;BME280;15682;56.742;38.866;2023-03-21T00:17:01;99100.0;;;1.8;75.9
28456;BME280;15682;56.742;38.866;2023-03-21T00:19:01;99100.0;;;1.8;75.9
28456;BME280;15682;56.742;38.866;2023-03-21T00:21:04;99090.0;;;1.8;75.9
28456;BME280;15682;56.742;38.866;2023-03-21T00:23:01;99090.0;;;1.8;75.9
28456;BME280;15682;56.742;38.866;2023-03-21T00:25:01;99090.0;;;2.0;76.7
28456;BME280;15682;56.742;38.866;2023-03-21T00:27:01;99090.0;;;2.0;75.7
28456;BME280;15682;56.742;38.866;2023-03-21T00:29:01;99080.0;;;2.0;75.7
28456;BME280;15682;56.742;38.866;2023-03-21T00:31:02;99080.0;;;2.0;75.7
28456;BME280;15682;56.742;38.866;2023-03-21T00:33:01;99080.0;;;2.0;75.7
28456;BME280;15682;56.742;38.866;2023-03-21T00:35:01;99080.0;;;2.0;75.7
28456;BME280;15682;56.742;38.866;2023-03-21T00:37:01;99080.0;;;2.1;75.7
28456;BME280;15682;56.742;38.866;2023-03-21T00:39:01;99080.0;;;2.1;75.7
28456;BME280;15682;56.742;38.866;2023-03-21T00:41:03;99080.0;;;2.1;75.7
28456;BME280;15682;56.742;38.866;2023-03-21T00:43:01;99080.0;;;2.1;76.3
28456;BME280;15682;56.742;38.866;2023-03-21T00:45:01;99080.0;;;1.9;76.1
28456;BME280;15682;56.742;38.866;2023-03-21T00:47:01;99080.0;;;2.0;76.1
28456;BME280;15682;56.742;38.866;2023-03-21T00:49:01;99080.0;;;2.0;76.1
28456;BME280;15682;56.742;38.866;2023-03-21T00:51:01;99080.0;;;2.0;76.1
28456;BME280;15682;56.742;38.866;2023-03-21T00:53:00;99070.0;;;2.0;75.7
28456;BME280;15682;56.742;38.866;2023-03-21T00:55:00;99070.0;;;2.0;75.6
28456;BME280;15682;56.742;38.866;2023-03-21T00:57:01;99070.0;;;2.1;75.6
28456;BME280;15682;56.742;38.866;2023-03-21T00:59:00;99070.0;;;1.9;75.6
28456;BME280;15682;56.742;38.866;2023-03-21T01:01:00;99070.0;;;1.9;75.6
28456;BME280;15682;56.742;38.866;2023-03-21T01:03:00;99060.0;;;1.8;76.7
28456;BME280;15682;56.742;38.866;2023-03-21T01:05:00;99060.0;;;1.8;76.3
28456;BME280;15682;56.742;38.866;2023-03-21T01:07:00;99060.0;;;1.7;76.3
28456;BME280;15682;56.742;38.866;2023-03-21T01:09:00;99050.0;;;1.8;77.3
28456;BME280;15682;56.742;38.866;2023-03-21T01:11:02;99050.0;;;1.8;76.7
28456;BME280;15682;56.742;38.866;2023-03-21T01:13:00;99050.0;;;1.8;76.7
28456;BME280;15682;56.742;38.866;2023-03-21T01:15:00;99050.0;;;1.7;76.9
28456;BME280;15682;56.742;38.866;2023-03-21T01:17:00;99050.0;;;1.7;77.5
28456;BME280;15682;56.742;38.866;2023-03-21T01:19:00;99050.0;;;1.7;77.5
28456;BME280;15682;56.742;38.866;2023-03-21T01:21:00;99050.0;;;1.7;77.9
28456;BME280;15682;56.742;38.866;2023-03-21T01:23:00;99050.0;;;1.7;76.8
28456;BME280;15682;56.742;38.866;2023-03-21T01:25:00;99050.0;;;1.7;77.4
28456;BME280;15682;56.742;38.866;2023-03-21T01:27:01;99040.0;;;1.7;77.4
28456;BME280;15682;56.742;38.866;2023-03-21T01:28:59;99040.0;;;1.7;77.4
28456;BME280;15682;56.742;38.866;2023-03-21T01:31:01;99040.0;;;1.6;78.0
28456;BME280;15682;56.742;38.866;2023-03-21T01:32:59;99040.0;;;1.6;78.0
28456;BME280;15682;56.742;38.866;2023-03-21T01:34:59;99040.0;;;1.6;78.5
28456;BME280;15682;56.742;38.866;2023-03-21T01:36:59;99040.0;;;1.5;78.5
28456;BME280;15682;56.742;38.866;2023-03-21T01:38:59;99040.0;;;1.5;78.5
28456;BME280;15682;56.742;38.866;2023-03-21T01:41:00;99040.0;;;1.5;78.5
28456;BME280;15682;56.742;38.866;2023-03-21T01:42:59;99040.0;;;1.4;78.7
28456;BME280;15682;56.742;38.866;2023-03-21T01:45:01;99040.0;;;1.4;78.9
28456;BME280;15682;56.742;38.866;2023-03-21T01:46:59;99040.0;;;1.3;78.9
28456;BME280;15682;56.742;38.866;2023-03-21T01:49:02;99030.0;;;1.3;79.3
28456;BME280;15682;56.742;38.866;2023-03-21T01:50:59;99030.0;;;1.3;79.3
28456;BME280;15682;56.742;38.866;2023-03-21T01:52:59;99030.0;;;1.3;79.3
28456;BME280;15682;56.742;38.866;2023-03-21T01:54:59;99030.0;;;1.3;78.7
28456;BME280;15682;56.742;38.866;2023-03-21T01:57:01;99030.0;;;1.4;78.7
28456;BME280;15682;56.742;38.866;2023-03-21T01:59:02;99030.0;;;1.4;78.7
28456;BME280;15682;56.742;38.866;2023-03-21T02:00:59;99030.0;;;1.4;79.2
28456;BME280;15682;56.742;38.866;2023-03-21T02:03:00;99030.0;;;1.4;79.2
28456;BME280;15682;56.742;38.866;2023-03-21T02:05:01;99030.0;;;1.4;79.5
28456;BME280;15682;56.742;38.866;2023-03-21T02:07:01;99030.0;;;1.3;78.7
28456;BME280;15682;56.742;38.866;2023-03-21T02:09:01;99030.0;;;1.3;78.7
28456;BME280;15682;56.742;38.866;2023-03-21T02:10:58;99030.0;;;1.3;78.7
28456;BME280;15682;56.742;38.866;2023-03-21T02:13:02;99030.0;;;1.2;78.7
28456;BME280;15682;56.742;38.866;2023-03-21T02:14:58;99030.0;;;1.2;78.4
28456;BME280;15682;56.742;38.866;2023-03-21T02:17:05;99030.0;;;1.3;78.4
28456;BME280;15682;56.742;38.866;2023-03-21T02:19:12;99030.0;;;1.4;77.6
28456;BME280;15682;56.742;38.866;2023-03-21T02:21:18;99030.0;;;1.4;77.6
28456;BME280;15682;56.742;38.866;2023-03-21T02:23:09;99030.0;;;1.2;78.5
28456;BME280;15682;56.742;38.866;2023-03-21T02:27:05;99020.0;;;1.3;78.4
28456;BME280;15682;56.742;38.866;2023-03-21T02:29:00;99020.0;;;1.4;78.3
28456;BME280;15682;56.742;38.866;2023-03-21T02:31:17;99020.0;;;1.4;78.3
28456;BME280;15682;56.742;38.866;2023-03-21T02:35:12;99020.0;;;1.5;79.6
28456;BME280;15682;56.742;38.866;2023-03-21T02:37:03;99010.0;;;1.5;77.8
28456;BME280;15682;56.742;38.866;2023-03-21T02:39:03;99000.0;;;1.5;77.8
28456;BME280;15682;56.742;38.866;2023-03-21T02:41:03;99000.0;;;1.5;77.8
28456;BME280;15682;56.742;38.866;2023-03-21T02:43:03;99000.0;;;1.6;77.8
28456;BME280;15682;56.742;38.866;2023-03-21T02:45:01;99000.0;;;1.6;77.0
28456;BME280;15682;56.742;38.866;2023-03-21T02:47:00;99000.0;;;1.7;77.0
28456;BME280;15682;56.742;38.866;2023-03-21T02:49:01;99000.0;;;1.7;77.0
28456;BME280;15682;56.742;38.866;2023-03-21T02:50:59;98990.0;;;1.7;77.0
28456;BME280;15682;56.742;38.866;2023-03-21T02:52:57;98990.0;;;1.7;77.0
28456;BME280;15682;56.742;38.866;2023-03-21T02:54:58;98990.0;;;1.7;76.7
28456;BME280;15682;56.742;38.866;2023-03-21T02:56:58;98990.0;;;1.7;76.7
28456;BME280;15682;56.742;38.866;2023-03-21T02:58:57;98990.0;;;1.7;76.7
28456;BME280;15682;56.742;38.866;2023-03-21T03:00:57;98970.0;;;1.7;76.7
28456;BME280;15682;56.742;38.866;2023-03-21T03:02:57;98970.0;;;1.7;77.5
28456;BME280;15682;56.742;38.866;2023-03-21T03:04:56;98970.0;;;1.7;77.7
28456;BME280;15682;56.742;38.866;2023-03-21T03:07:13;98970.0;;;1.6;78.1
28456;BME280;15682;56.742;38.866;2023-03-21T03:09:06;98970.0;;;1.6;78.1
28456;BME280;15682;56.742;38.866;2023-03-21T03:11:05;98970.0;;;1.6;78.7
28456;BME280;15682;56.742;38.866;2023-03-21T03:13:02;98970.0;;;1.6;78.7
28456;BME280;15682;56.742;38.866;2023-03-21T03:15:02;98970.0;;;1.6;78.0
28456;BME280;15682;56.742;38.866;2023-03-21T03:17:06;98970.0;;;1.6;78.0
28456;BME280;15682;56.742;38.866;2023-03-21T03:18:58;98970.0;;;1.6;78.0
28456;BME280;15682;56.742;38.866;2023-03-21T03:21:01;98970.0;;;1.6;79.0
28456;BME280;15682;56.742;38.866;2023-03-21T03:23:06;98970.0;;;1.6;78.0
28456;BME280;15682;56.742;38.866;2023-03-21T03:24:58;98970.0;;;1.6;78.1
28456;BME280;15682;56.742;38.866;2023-03-21T03:26:58;98970.0;;;1.7;78.1
28456;BME280;15682;56.742;38.866;2023-03-21T03:28:59;98970.0;;;1.7;78.7
28456;BME280;15682;56.742;38.866;2023-03-21T03:30:57;98960.0;;;1.7;77.5
28456;BME280;15682;56.742;38.866;2023-03-21T03:32:58;98960.0;;;1.7;78.7
28456;BME280;15682;56.742;38.866;2023-03-21T03:34:56;98960.0;;;1.8;79.8
28456;BME280;15682;56.742;38.866;2023-03-21T03:36:57;98960.0;;;1.8;79.1
28456;BME280;15682;56.742;38.866;2023-03-21T03:38:56;98960.0;;;1.8;78.2
28456;BME280;15682;56.742;38.866;2023-03-21T03:41:00;98960.0;;;1.8;78.2
28456;BME280;15682;56.742;38.866;2023-03-21T03:43:00;98960.0;;;1.8;78.9
28456;BME280;15682;56.742;38.866;2023-03-21T03:44:56;98960.0;;;1.8;78.4
28456;BME280;15682;56.742;38.866;2023-03-21T03:46:58;98960.0;;;1.8;78.3
28456;BME280;15682;56.742;38.866;2023-03-21T03:48:59;98960.0;;;1.8;78.3
28456;BME280;15682;56.742;38.866;2023-03-21T03:50:59;98960.0;;;1.9;77.4
28456;BME280;15682;56.742;38.866;2023-03-21T03:53:01;98950.0;;;1.9;77.4
28456;BME280;15682;56.742;38.866;2023-03-21T03:54:56;98950.0;;;1.9;77.3
28456;BME280;15682;56.742;38.866;2023-03-21T03:56:56;98950.0;;;1.9;77.3
28456;BME280;15682;56.742;38.866;2023-03-21T03:58:55;98950.0;;;1.9;77.3
28456;BME280;15682;56.742;38.866;2023-03-21T04:00:55;98950.0;;;1.9;76.8
28456;BME280;15682;56.742;38.866;2023-03-21T04:02:55;98950.0;;;1.9;77.3
28456;BME280;15682;56.742;38.866;2023-03-21T04:04:55;98950.0;;;1.9;76.8
28456;BME280;15682;56.742;38.866;2023-03-21T04:06:55;98950.0;;;1.9;76.8
28456;BME280;15682;56.742;38.866;2023-03-21T04:08:55;98950.0;;;1.9;77.6
28456;BME280;15682;56.742;38.866;2023-03-21T04:10:55;98950.0;;;1.9;77.6
28456;BME280;15682;56.742;38.866;2023-03-21T04:12:55;98950.0;;;1.9;77.6
28456;BME280;15682;56.742;38.866;2023-03-21T04:14:55;98950.0;;;1.9;77.9
28456;BME280;15682;56.742;38.866;2023-03-21T04:16:55;98950.0;;;1.9;78.6
28456;BME280;15682;56.742;38.866;2023-03-21T04:18:55;98950.0;;;2.0;78.6
28456;BME280;15682;56.742;38.866;2023-03-21T04:20:55;98950.0;;;2.1;79.4
28456;BME280;15682;56.742;38.866;2023-03-21T04:22:55;98950.0;;;2.1;80.4
28456;BME280;15682;56.742;38.866;2023-03-21T04:24:54;98950.0;;;2.1;78.5
28456;BME280;15682;56.742;38.866;2023-03-21T04:26:54;98950.0;;;2.1;79.8
28456;BME280;15682;56.742;38.866;2023-03-21T04:28:54;98950.0;;;2.1;82.2
28456;BME280;15682;56.742;38.866;2023-03-21T04:30:54;98950.0;;;2.1;78.4
28456;BME280;15682;56.742;38.866;2023-03-21T04:32:54;98950.0;;;2.2;79.0
28456;BME280;15682;56.742;38.866;2023-03-21T04:34:54;98950.0;;;2.2;78.4
28456;BME280;15682;56.742;38.866;2023-03-21T04:36:55;98950.0;;;2.2;78.4
28456;BME280;15682;56.742;38.866;2023-03-21T04:38:55;98940.0;;;2.2;78.4
28456;BME280;15682;56.742;38.866;2023-03-21T04:40:54;98940.0;;;2.2;78.4
28456;BME280;15682;56.742;38.866;2023-03-21T04:42:54;98940.0;;;2.4;78.4
28456;BME280;15682;56.742;38.866;2023-03-21T04:44:54;98940.0;;;2.4;78.6
28456;BME280;15682;56.742;38.866;2023-03-21T04:46:54;98940.0;;;2.4;79.0
28456;BME280;15682;56.742;38.866;2023-03-21T04:48:54;98940.0;;;2.3;78.2
28456;BME280;15682;56.742;38.866;2023-03-21T04:50:54;98930.0;;;2.3;78.2
28456;BME280;15682;56.742;38.866;2023-03-21T04:52:54;98930.0;;;2.3;78.2
28456;BME280;15682;56.742;38.866;2023-03-21T04:54:54;98930.0;;;2.3;78.4
28456;BME280;15682;56.742;38.866;2023-03-21T04:56:54;98930.0;;;2.3;78.8
28456;BME280;15682;56.742;38.866;2023-03-21T04:58:54;98930.0;;;2.3;78.2
28456;BME280;15682;56.742;38.866;2023-03-21T05:00:54;98920.0;;;2.3;78.2
28456;BME280;15682;56.742;38.866;2023-03-21T05:02:54;98920.0;;;2.3;78.8
28456;BME280;15682;56.742;38.866;2023-03-21T05:04:54;98920.0;;;2.3;78.8
28456;BME280;15682;56.742;38.866;2023-03-21T05:06:54;98920.0;;;2.3;78.8
28456;BME280;15682;56.742;38.866;2023-03-21T05:08:55;98920.0;;;2.4;79.0
28456;BME280;15682;56.742;38.866;2023-03-21T05:10:54;98920.0;;;2.4;79.0
28456;BME280;15682;56.742;38.866;2023-03-21T05:12:54;98920.0;;;2.4;79.6
28456;BME280;15682;56.742;38.866;2023-03-21T05:14:54;98920.0;;;2.5;80.2
28456;BME280;15682;56.742;38.866;2023-03-21T05:16:54;98920.0;;;2.5;80.2
28456;BME280;15682;56.742;38.866;2023-03-21T05:18:54;98920.0;;;2.5;79.4
28456;BME280;15682;56.742;38.866;2023-03-21T05:20:54;98920.0;;;2.7;79.4
28456;BME280;15682;56.742;38.866;2023-03-21T05:22:54;98920.0;;;2.7;80.0
28456;BME280;15682;56.742;38.866;2023-03-21T05:24:54;98920.0;;;2.7;80.3
28456;BME280;15682;56.742;38.866;2023-03-21T05:26:54;98920.0;;;2.7;80.7
28456;BME280;15682;56.742;38.866;2023-03-21T05:28:53;98920.0;;;2.7;79.6
28456;BME280;15682;56.742;38.866;2023-03-21T05:30:53;98920.0;;;2.7;80.5
28456;BME280;15682;56.742;38.866;2023-03-21T05:32:53;98920.0;;;2.7;80.5
28456;BME280;15682;56.742;38.866;2023-03-21T05:34:53;98920.0;;;2.8;80.2
28456;BME280;15682;56.742;38.866;2023-03-21T05:36:54;98920.0;;;2.8;80.2
28456;BME280;15682;56.742;38.866;2023-03-21T05:38:53;98920.0;;;2.8;80.2
28456;BME280;15682;56.742;38.866;2023-03-21T05:40:53;98920.0;;;2.9;80.2
28456;BME280;15682;56.742;38.866;2023-03-21T05:42:53;98920.0;;;2.9;80.2
28456;BME280;15682;56.742;38.866;2023-03-21T05:44:53;98920.0;;;2.9;81.2
28456;BME280;15682;56.742;38.866;2023-03-21T05:46:53;98920.0;;;2.9;81.2
28456;BME280;15682;56.742;38.866;2023-03-21T05:48:53;98920.0;;;3.0;81.2
28456;BME280;15682;56.742;38.866;2023-03-21T05:50:54;98920.0;;;3.0;81.7
28456;BME280;15682;56.742;38.866;2023-03-21T05:52:53;98920.0;;;3.0;80.9
28456;BME280;15682;56.742;38.866;2023-03-21T05:54:53;98920.0;;;3.3;80.7
28456;BME280;15682;56.742;38.866;2023-03-21T05:56:53;98920.0;;;3.3;80.7
28456;BME280;15682;56.742;38.866;2023-03-21T05:58:53;98920.0;;;3.3;80.7
28456;BME280;15682;56.742;38.866;2023-03-21T06:00:53;98920.0;;;3.3;80.7
28456;BME280;15682;56.742;38.866;2023-03-21T06:02:53;98920.0;;;3.3;81.6
28456;BME280;15682;56.742;38.866;2023-03-21T06:04:53;98920.0;;;3.3;81.5
28456;BME280;15682;56.742;38.866;2023-03-21T06:06:53;98920.0;;;3.4;80.9
28456;BME280;15682;56.742;38.866;2023-03-21T06:08:54;98920.0;;;3.6;80.9
28456;BME280;15682;56.742;38.866;2023-03-21T06:10:53;98920.0;;;3.6;81.4
28456;BME280;15682;56.742;38.866;2023-03-21T06:12:53;98920.0;;;3.6;80.5
28456;BME280;15682;56.742;38.866;2023-03-21T06:14:53;98920.0;;;3.7;80.7
28456;BME280;15682;56.742;38.866;2023-03-21T06:16:53;98910.0;;;3.7;80.7
28456;BME280;15682;56.742;38.866;2023-03-21T06:18:54;98910.0;;;3.7;80.7
28456;BME280;15682;56.742;38.866;2023-03-21T06:20:54;98910.0;;;3.5;80.7
28456;BME280;15682;56.742;38.866;2023-03-21T06:22:54;98910.0;;;3.5;81.2
28456;BME280;15682;56.742;38.866;2023-03-21T06:24:54;98910.0;;;3.5;81.3
28456;BME280;15682;56.742;38.866;2023-03-21T06:26:54;98910.0;;;3.5;81.3
28456;BME280;15682;56.742;38.866;2023-03-21T06:28:54;98900.0;;;3.4;81.8
28456;BME280;15682;56.742;38.866;2023-03-21T06:30:54;98900.0;;;3.4;81.8
28456;BME280;15682;56.742;38.866;2023-03-21T06:32:54;98900.0;;;3.5;82.5
28456;BME280;15682;56.742;38.866;2023-03-21T06:34:54;98900.0;;;3.4;82.5
28456;BME280;15682;56.742;38.866;2023-03-21T06:36:54;98900.0;;;3.4;82.5
28456;BME280;15682;56.742;38.866;2023-03-21T06:38:54;98890.0;;;3.4;83.2
28456;BME280;15682;56.742;38.866;2023-03-21T06:40:54;98890.0;;;3.3;83.2
28456;BME280;15682;56.742;38.866;2023-03-21T06:42:54;98890.0;;;3.3;84.4
28456;BME280;15682;56.742;38.866;2023-03-21T06:44:54;98890.0;;;3.3;84.4
28456;BME280;15682;56.742;38.866;2023-03-21T06:46:54;98890.0;;;3.3;84.9
28456;BME280;15682;56.742;38.866;2023-03-21T06:48:54;98890.0;;;3.1;84.9
28456;BME280;15682;56.742;38.866;2023-03-21T06:50:55;98890.0;;;3.1;85.8
28456;BME280;15682;56.742;38.866;2023-03-21T06:52:54;98890.0;;;3.1;85.8
28456;BME280;15682;56.742;38.866;2023-03-21T06:54:54;98890.0;;;3.1;86.0
28456;BME280;15682;56.742;38.866;2023-03-21T06:56:54;98880.0;;;3.0;87.0
28456;BME280;15682;56.742;38.866;2023-03-21T06:58:54;98870.0;;;3.0;87.0
28456;BME280;15682;56.742;38.866;2023-03-21T07:00:57;98870.0;;;3.0;87.0
28456;BME280;15682;56.742;38.866;2023-03-21T07:02:54;98870.0;;;3.0;87.0
28456;BME280;15682;56.742;38.866;2023-03-21T07:04:54;98870.0;;;3.0;87.2
28456;BME280;15682;56.742;38.866;2023-03-21T07:06:54;98870.0;;;3.0;87.2
28456;BME280;15682;56.742;38.866;2023-03-21T07:08:55;98870.0;;;3.0;87.6
28456;BME280;15682;56.742;38.866;2023-03-21T07:10:55;98870.0;;;3.2;89.6
28456;BME280;15682;56.742;38.866;2023-03-21T07:12:54;98870.0;;;3.2;88.3
28456;BME280;15682;56.742;38.866;2023-03-21T07:14:54;98870.0;;;3.2;89.2
28456;BME280;15682;56.742;38.866;2023-03-21T07:16:54;98880.0;;;3.2;89.2
28456;BME280;15682;56.742;38.866;2023-03-21T07:18:54;98880.0;;;3.1;89.2
28456;BME280;15682;56.742;38.866;2023-03-21T07:20:54;98880.0;;;3.1;89.0
28456;BME280;15682;56.742;38.866;2023-03-21T07:22:54;98880.0;;;3.3;89.2
28456;BME280;15682;56.742;38.866;2023-03-21T07:24:54;98880.0;;;3.3;87.8
28456;BME280;15682;56.742;38.866;2023-03-21T07:26:54;98880.0;;;3.3;87.8
28456;BME280;15682;56.742;38.866;2023-03-21T07:28:54;98880.0;;;3.3;88.5
28456;BME280;15682;56.742;38.866;2023-03-21T07:30:56;98880.0;;;3.3;88.5
28456;BME280;15682;56.742;38.866;2023-03-21T07:32:54;98880.0;;;3.3;89.5
28456;BME280;15682;56.742;38.866;2023-03-21T07:34:55;98880.0;;;3.3;88.7
28456;BME280;15682;56.742;38.866;2023-03-21T07:36:54;98880.0;;;3.5;88.0
28456;BME280;15682;56.742;38.866;2023-03-21T07:38:54;98880.0;;;3.5;88.0
28456;BME280;15682;56.742;38.866;2023-03-21T07:40:54;98880.0;;;3.5;88.0
28456;BME280;15682;56.742;38.866;2023-03-21T07:42:54;98880.0;;;3.5;88.7
28456;BME280;15682;56.742;38.866;2023-03-21T07:44:55;98880.0;;;3.5;88.7
28456;BME280;15682;56.742;38.866;2023-03-21T07:46:54;98880.0;;;3.5;88.7
28456;BME280;15682;56.742;38.866;2023-03-21T07:48:54;98880.0;;;3.5;88.7
28456;BME280;15682;56.742;38.866;2023-03-21T07:50:55;98880.0;;;3.7;89.3
28456;BME280;15682;56.742;38.866;2023-03-21T07:52:54;98870.0;;;3.7;89.3
28456;BME280;15682;56.742;38.866;2023-03-21T07:54:54;98870.0;;;3.8;89.0
28456;BME280;15682;56.742;38.866;2023-03-21T07:56:55;98870.0;;;3.9;89.9
28456;BME280;15682;56.742;38.866;2023-03-21T07:58:54;98870.0;;;3.9;89.9
28456;BME280;15682;56.742;38.866;2023-03-21T08:00:54;98870.0;;;4.1;89.9
28456;BME280;15682;56.742;38.866;2023-03-21T08:02:56;98870.0;;;4.2;90.6
28456;BME280;15682;56.742;38.866;2023-03-21T08:04:55;98870.0;;;4.4;89.5
28456;BME280;15682;56.742;38.866;2023-03-21T08:06:54;98870.0;;;4.4;88.8
28456;BME280;15682;56.742;38.866;2023-03-21T08:08:54;98870.0;;;4.2;89.9
28456;BME280;15682;56.742;38.866;2023-03-21T08:10:55;98870.0;;;4.2;89.9
28456;BME280;15682;56.742;38.866;2023-03-21T08:12:55;98870.0;;;4.1;90.4
28456;BME280;15682;56.742;38.866;2023-03-21T08:14:55;98870.0;;;4.1;92.4
28456;BME280;15682;56.742;38.866;2023-03-21T08:16:55;98860.0;;;4.1;90.5
28456;BME280;15682;56.742;38.866;2023-03-21T08:18:55;98860.0;;;4.0;90.5
28456;BME280;15682;56.742;38.866;2023-03-21T08:20:56;98860.0;;;4.2;89.9
28456;BME280;15682;56.742;38.866;2023-03-21T08:22:55;98860.0;;;4.1;91.1
28456;BME280;15682;56.742;38.866;2023-03-21T08:24:55;98860.0;;;4.1;91.2
28456;BME280;15682;56.742;38.866;2023-03-21T08:26:55;98860.0;;;4.2;90.6
28456;BME280;15682;56.742;38.866;2023-03-21T08:28:55;98860.0;;;4.3;90.6
28456;BME280;15682;56.742;38.866;2023-03-21T08:30:55;98860.0;;;4.5;90.6
28456;BME280;15682;56.742;38.866;2023-03-21T08:32:56;98850.0;;;4.5;91.6
28456;BME280;15682;56.742;38.866;2023-03-21T08:34:58;98850.0;;;4.4;90.8
28456;BME280;15682;56.742;38.866;2023-03-21T08:36:55;98850.0;;;4.5;92.7
28456;BME280;15682;56.742;38.866;2023-03-21T08:38:55;98850.0;;;4.3;91.0
28456;BME280;15682;56.742;38.866;2023-03-21T08:40:55;98840.0;;;4.3;91.0
28456;BME280;15682;56.742;38.866;2023-03-21T08:42:55;98840.0;;;4.3;91.0
28456;BME280;15682;56.742;38.866;2023-03-21T08:44:55;98840.0;;;4.7;90.2
28456;BME280;15682;56.742;38.866;2023-03-21T08:46:55;98840.0;;;4.7;89.1
28456;BME280;15682;56.742;38.866;2023-03-21T08:48:55;98840.0;;;4.8;88.6
28456;BME280;15682;56.742;38.866;2023-03-21T08:50:56;98840.0;;;5.1;89.1
28456;BME280;15682;56.742;38.866;2023-03-21T08:52:56;98830.0;;;5.3;89.1
28456;BME280;15682;56.742;38.866;2023-03-21T08:54:56;98820.0;;;5.3;87.4
28456;BME280;15682;56.742;38.866;2023-03-21T08:56:56;98820.0;;;5.3;88.1
28456;BME280;15682;56.742;38.866;2023-03-21T08:58:56;98820.0;;;5.3;88.9
28456;BME280;15682;56.742;38.866;2023-03-21T09:00:56;98820.0;;;5.3;89.0
28456;BME280;15682;56.742;38.866;2023-03-21T09:02:56;98820.0;;;5.4;88.0
28456;BME280;15682;56.742;38.866;2023-03-21T09:04:56;98820.0;;;5.4;86.5
28456;BME280;15682;56.742;38.866;2023-03-21T09:06:56;98820.0;;;5.6;87.7
28456;BME280;15682;56.742;38.866;2023-03-21T09:08:56;98820.0;;;5.4;88.5
28456;BME280;15682;56.742;38.866;2023-03-21T09:10:56;98820.0;;;5.2;89.1
28456;BME280;15682;56.742;38.866;2023-03-21T09:12:56;98820.0;;;5.2;88.5
28456;BME280;15682;56.742;38.866;2023-03-21T09:14:56;98820.0;;;5.4;88.4
28456;BME280;15682;56.742;38.866;2023-03-21T09:16:56;98820.0;;;5.5;89.9
28456;BME280;15682;56.742;38.866;2023-03-21T09:18:56;98820.0;;;5.5;87.2
28456;BME280;15682;56.742;38.866;2023-03-21T09:20:56;98820.0;;;5.5;89.5
28456;BME280;15682;56.742;38.866;2023-03-21T09:22:57;98820.0;;;5.5;87.8
28456;BME280;15682;56.742;38.866;2023-03-21T09:24:57;98820.0;;;5.7;86.8
28456;BME280;15682;56.742;38.866;2023-03-21T09:26:57;98820.0;;;5.8;86.8
28456;BME280;15682;56.742;38.866;2023-03-21T09:28:58;98820.0;;;6.0;87.6
28456;BME280;15682;56.742;38.866;2023-03-21T09:30:57;98820.0;;;6.0;87.6
28456;BME280;15682;56.742;38.866;2023-03-21T09:32:58;98820.0;;;6.0;86.7
28456;BME280;15682;56.742;38.866;2023-03-21T09:34:57;98820.0;;;6.6;84.1
28456;BME280;15682;56.742;38.866;2023-03-21T09:36:57;98820.0;;;6.3;85.4
28456;BME280;15682;56.742;38.866;2023-03-21T09:38:57;98820.0;;;6.3;85.9
28456;BME280;15682;56.742;38.866;2023-03-21T09:41:05;98820.0;;;6.5;83.6
28456;BME280;15682;56.742;38.866;2023-03-21T09:43:02;98820.0;;;6.5;83.6
28456;BME280;15682;56.742;38.866;2023-03-21T09:45:05;98820.0;;;6.6;83.8
28456;BME280;15682;56.742;38.866;2023-03-21T09:47:02;98820.0;;;6.5;84.4
28456;BME280;15682;56.742;38.866;2023-03-21T09:49:01;98800.0;;;6.7;82.6
28456;BME280;15682;56.742;38.866;2023-03-21T09:50:58;98790.0;;;6.6;83.7
28456;BME280;15682;56.742;38.866;2023-03-21T09:53:00;98790.0;;;6.7;84.6
28456;BME280;15682;56.742;38.866;2023-03-21T09:54:58;98790.0;;;6.5;83.7
28456;BME280;15682;56.742;38.866;2023-03-21T09:57:01;98790.0;;;6.7;83.5
28456;BME280;15682;56.742;38.866;2023-03-21T09:58:59;98790.0;;;6.6;83.5
28456;BME280;15682;56.742;38.866;2023-03-21T10:01:03;98790.0;;;6.9;82.3
28456;BME280;15682;56.742;38.866;2023-03-21T10:03:02;98790.0;;;7.1;82.7
28456;BME280;15682;56.742;38.866;2023-03-21T10:04:59;98790.0;;;7.1;81.3
28456;BME280;15682;56.742;38.866;2023-03-21T10:07:01;98780.0;;;6.8;83.8
28456;BME280;15682;56.742;38.866;2023-03-21T10:09:01;98780.0;;;6.8;81.8
28456;BME280;15682;56.742;38.866;2023-03-21T10:11:02;98770.0;;;6.9;82.8
28456;BME280;15682;56.742;38.866;2023-03-21T10:12:59;98770.0;;;6.9;82.5
28456;BME280;15682;56.742;38.866;2023-03-21T10:15:00;98760.0;;;7.0;82.7
28456;BME280;15682;56.742;38.866;2023-03-21T10:17:03;98760.0;;;7.0;82.7
28456;BME280;15682;56.742;38.866;2023-03-21T10:19:03;98760.0;;;6.7;82.0
28456;BME280;15682;56.742;38.866;2023-03-21T10:21:00;98760.0;;;6.7;82.7
28456;BME280;15682;56.742;38.866;2023-03-21T10:23:03;98760.0;;;6.7;81.5
28456;BME280;15682;56.742;38.866;2023-03-21T10:25:00;98760.0;;;6.6;82.1
28456;BME280;15682;56.742;38.866;2023-03-21T10:27:00;98760.0;;;6.7;83.1
28456;BME280;15682;56.742;38.866;2023-03-21T10:29:01;98760.0;;;6.9;81.2
28456;BME280;15682;56.742;38.866;2023-03-21T10:31:02;98760.0;;;6.9;81.2
28456;BME280;15682;56.742;38.866;2023-03-21T10:33:02;98750.0;;;6.8;81.2
28456;BME280;15682;56.742;38.866;2023-03-21T10:35:00;98740.0;;;6.6;81.1
28456;BME280;15682;56.742;38.866;2023-03-21T10:37:01;98740.0;;;6.7;81.1
28456;BME280;15682;56.742;38.866;2023-03-21T10:39:02;98740.0;;;6.9;81.1
28456;BME280;15682;56.742;38.866;2023-03-21T10:41:01;98740.0;;;7.0;80.0
28456;BME280;15682;56.742;38.866;2023-03-21T10:43:17;98740.0;;;6.9;82.9
28456;BME280;15682;56.742;38.866;2023-03-21T10:45:01;98740.0;;;6.7;80.3
28456;BME280;15682;56.742;38.866;2023-03-21T10:47:05;98740.0;;;6.7;80.3
28456;BME280;15682;56.742;38.866;2023-03-21T10:49:01;98740.0;;;6.4;81.1
28456;BME280;15682;56.742;38.866;2023-03-21T10:51:01;98730.0;;;6.2;84.1
28456;BME280;15682;56.742;38.866;2023-03-21T10:53:01;98730.0;;;6.2;83.1
28456;BME280;15682;56.742;38.866;2023-03-21T10:55:07;98730.0;;;6.2;82.5
28456;BME280;15682;56.742;38.866;2023-03-21T10:57:04;98720.0;;;6.3;82.5
28456;BME280;15682;56.742;38.866;2023-03-21T10:59:01;98710.0;;;6.3;82.5
28456;BME280;15682;56.742;38.866;2023-03-21T11:01:05;98710.0;;;6.5;82.0
28456;BME280;15682;56.742;38.866;2023-03-21T11:03:02;98710.0;;;6.4;82.0
28456;BME280;15682;56.742;38.866;2023-03-21T11:05:05;98710.0;;;6.4;81.9